Tasman Sea — WDB5559 — position and weather

sailwx.info

Track history (hours):
 
Tides and Currents Weather Stations Pressure Air Temp Water Temp Dewpoint Dewpoint Depression Visibility Wind Speed Wind Dir Waves Ship Positions

Tasman Sea

Owner: Kirby Offshore Marine, LLC, Staten Island, NY. More information available from US FCC via Universal Licensing System and Coast Guard Vessel Documentation Center.

Last reported at 2014-Nov-24 21:31 UTC. Time now 2014-Nov-27 16:08 UTC.
Position N 40°55' W 073°55'.

Length 38 m; draft 5 m.

Type: Tug. MMSI: 366910960.

Date/timePositionNaut miles runAvg speedWind from/ knotsBaromVisibWave heightAir tempDewpointWater temp
2014-Nov-24 21:31N 40°55' W 073°55'6 6.1
2014-Nov-24 20:33N 40°50' W 073°58'6 6.2
2014-Nov-24 19:33N 40°44' W 074°01'6 5.5
2014-Nov-24 18:33N 40°39' W 074°03'0 0.0
2014-Nov-24 17:33N 40°39' W 074°03'0 0.1
2014-Nov-24 16:33N 40°39' W 074°03'0 0.2
2014-Nov-24 15:33N 40°39' W 074°03'0 0.0
2014-Nov-24 14:33N 40°39' W 074°03'0 0.0
2014-Nov-24 13:33N 40°39' W 074°03'0 0.0
2014-Nov-24 12:33N 40°39' W 074°03'0 0.0
2014-Nov-24 11:33N 40°39' W 074°03'0 0.0
2014-Nov-24 10:33N 40°39' W 074°03'0 0.0
2014-Nov-24 09:33N 40°39' W 074°03'0 0.1
2014-Nov-24 08:33N 40°39' W 074°03'0 0.1
2014-Nov-24 07:33N 40°39' W 074°03'0 0.0
2014-Nov-24 06:33N 40°39' W 074°03'2 1.6
2014-Nov-24 05:33N 40°40' W 074°03'10 9.9
2014-Nov-24 04:33N 40°48' W 073°54'8 7.9
2014-Nov-24 03:33N 40°52' W 073°45'9 9.3
2014-Nov-24 02:33N 40°57' W 073°35'10 9.9
2014-Nov-24 01:33N 41°01' W 073°23'10 9.7
2014-Nov-24 00:33N 41°02' W 073°10'9 9.4
2014-Nov-23 23:33N 41°04' W 072°58'9 8.9
2014-Nov-23 22:33N 41°06' W 072°46'8 8.4
2014-Nov-23 21:33N 41°08' W 072°35'7 7.4
2014-Nov-23 20:33N 41°10' W 072°26'6 6.4
2014-Nov-23 19:33N 41°11' W 072°17'7 6.5
2014-Nov-23 18:33N 41°13' W 072°09'7 6.9
2014-Nov-23 17:33N 41°14' W 072°00'8 8.4
2014-Nov-23 16:33N 41°16' W 071°49'8 8.4
2014-Nov-23 15:33N 41°17' W 071°38'8 7.9
2014-Nov-23 14:33N 41°19' W 071°28'8 8.1
2014-Nov-23 13:33N 41°26' W 071°23'8 8.0
2014-Nov-23 12:33N 41°33' W 071°19'8 8.1
2014-Nov-23 11:33N 41°41' W 071°19'6 6.1
2014-Nov-23 10:33N 41°47' W 071°22'0 0.0
2014-Nov-23 09:31N 41°47' W 071°22'0 0.0
2014-Nov-23 07:33N 41°47' W 071°22'0 0.0
2014-Nov-23 06:32N 41°47' W 071°22'0 0.0
2014-Nov-23 05:33N 41°47' W 071°22'0 0.0
2014-Nov-23 04:33N 41°47' W 071°22'0 0.0
2014-Nov-23 03:32N 41°47' W 071°22'0 0.0
2014-Nov-23 02:33N 41°47' W 071°22'0 0.0
2014-Nov-23 01:33N 41°47' W 071°22'0 0.0
2014-Nov-23 00:31N 41°47' W 071°22'0 0.0
2014-Nov-22 23:33N 41°47' W 071°22'6 6.3
2014-Nov-22 22:33N 41°41' W 071°19'9 8.1
2014-Nov-22 21:26N 41°32' W 071°20'7 7.7
2014-Nov-22 20:33N 41°26' W 071°22'6 6.3
2014-Nov-22 19:32N 41°25' W 071°14'8 6.3
2014-Nov-22 18:14N 41°25' W 071°03'5 6.7
2014-Nov-22 17:31N 41°28' W 070°58'8 7.4
2014-Nov-22 16:25N 41°32' W 070°48'12 0.2
2014-Nov-20 14:27N 41°25' W 071°02'3 3.8
2014-Nov-20 13:33N 41°23' W 071°06'5 4.8
2014-Nov-20 12:33N 41°21' W 071°12'5 5.0
2014-Nov-20 11:33N 41°19' W 071°18'5 4.9
2014-Nov-20 10:33N 41°18' W 071°24'6 6.0
2014-Nov-20 09:33N 41°18' W 071°32'7 7.5
2014-Nov-20 08:33N 41°17' W 071°42'8 7.9
2014-Nov-20 07:33N 41°15' W 071°52'9 9.0
2014-Nov-20 06:33N 41°14' W 072°04'10 9.6
2014-Nov-20 05:33N 41°12' W 072°16'10 9.7
2014-Nov-20 04:33N 41°09' W 072°29'9 8.8
2014-Nov-20 03:33N 41°07' W 072°40'8 8.0
2014-Nov-20 02:33N 41°05' W 072°50'8 7.6
2014-Nov-20 01:33N 41°04' W 073°00'8 7.2
2014-Nov-20 00:28N 41°02' W 073°10'7 7.0
2014-Nov-19 23:26N 41°01' W 073°20'28 7.0
2014-Nov-19 19:29N 40°48' W 073°52'5 5.4
2014-Nov-19 18:33N 40°45' W 073°58'4 3.8
2014-Nov-19 17:33N 40°43' W 074°02'  
2014-Nov-17 11:32N 40°50' W 073°57'9 9.7
2014-Nov-17 10:33N 40°42' W 074°02'5 4.5
2014-Nov-17 09:33N 40°39' W 074°07'0 0.0
2014-Nov-17 08:33N 40°39' W 074°07'0 0.0
2014-Nov-17 07:33N 40°39' W 074°07'0 0.0
2014-Nov-17 06:33N 40°39' W 074°07'0 0.0
2014-Nov-17 05:29N 40°39' W 074°07'0 0.0
2014-Nov-17 04:33N 40°39' W 074°07'0 0.0
2014-Nov-17 03:33N 40°39' W 074°07'0 0.2
2014-Nov-17 02:33N 40°39' W 074°07'2 2.3
2014-Nov-17 01:32N 40°39' W 074°10'0 0.0
2014-Nov-17 00:33N 40°39' W 074°10'3 2.5
2014-Nov-16 23:33N 40°39' W 074°07'1 0.8
2014-Nov-16 22:33N 40°39' W 074°08'0 0.2
2014-Nov-16 21:33N 40°39' W 074°08'1 1.2
2014-Nov-16 20:33N 40°39' W 074°06'2 1.7
2014-Nov-16 19:33N 40°40' W 074°04'0 0.0
2014-Nov-16 18:33N 40°40' W 074°04'0 0.0
2014-Nov-16 17:33N 40°40' W 074°04'0 0.0
2014-Nov-16 16:33N 40°40' W 074°04'0 0.0
2014-Nov-16 15:33N 40°40' W 074°04'0 0.0
2014-Nov-16 14:33N 40°40' W 074°04'0 0.0
2014-Nov-16 13:33N 40°40' W 074°04'0 0.0
2014-Nov-16 12:33N 40°40' W 074°04'0 0.0
2014-Nov-16 11:33N 40°40' W 074°04'0 0.0
2014-Nov-16 10:33N 40°40' W 074°04'0 0.0
2014-Nov-16 09:33N 40°40' W 074°04'0 0.0
2014-Nov-16 08:33N 40°40' W 074°04'0 0.0
2014-Nov-16 07:33N 40°40' W 074°04'0 0.0
2014-Nov-16 06:33N 40°40' W 074°04'0 0.0
2014-Nov-16 05:33N 40°40' W 074°04'0 0.0
2014-Nov-16 04:33N 40°40' W 074°04'0 0.0
2014-Nov-16 03:33N 40°40' W 074°04'0 0.0
2014-Nov-16 02:33N 40°40' W 074°04'0 0.0
2014-Nov-16 01:33N 40°40' W 074°04'0 0.0
2014-Nov-16 00:33N 40°40' W 074°04'0 0.0
2014-Nov-15 23:31N 40°40' W 074°04'0 0.0
2014-Nov-15 22:28N 40°40' W 074°04'0 0.0
2014-Nov-15 21:33N 40°40' W 074°04'0 0.0
2014-Nov-15 20:33N 40°40' W 074°04'0 0.0
2014-Nov-15 19:33N 40°40' W 074°04'0 0.0
2014-Nov-15 18:33N 40°40' W 074°04'0 0.0
2014-Nov-15 17:32N 40°40' W 074°04'0 0.0
2014-Nov-15 16:31N 40°40' W 074°04'0 0.0
2014-Nov-15 15:33N 40°40' W 074°04'0 0.0
2014-Nov-15 14:33N 40°40' W 074°04'0 0.0
2014-Nov-15 13:33N 40°40' W 074°04'0 0.0
2014-Nov-15 12:33N 40°40' W 074°04'0 0.0
2014-Nov-15 11:33N 40°40' W 074°04'0 0.0
2014-Nov-15 10:33N 40°40' W 074°04'0 0.0
2014-Nov-15 09:33N 40°40' W 074°04'0 0.0
2014-Nov-15 08:33N 40°40' W 074°04'0 0.0
2014-Nov-15 07:33N 40°40' W 074°04'0 0.0
2014-Nov-15 06:33N 40°40' W 074°04'0 0.0
2014-Nov-15 05:33N 40°40' W 074°04'0 0.0
2014-Nov-15 04:33N 40°40' W 074°04'0 0.0
2014-Nov-15 03:33N 40°40' W 074°04'0 0.0
2014-Nov-15 02:33N 40°40' W 074°04'0 0.0
2014-Nov-15 01:33N 40°40' W 074°04'0 0.0
2014-Nov-15 00:33N 40°40' W 074°04'0 0.0
2014-Nov-14 23:33N 40°40' W 074°04'0 0.0
2014-Nov-14 22:32N 40°40' W 074°04'0 0.0
2014-Nov-14 21:33N 40°40' W 074°04'  
Track history (hours):
 
Tides and Currents Weather Stations Pressure Air Temp Water Temp Dewpoint Dewpoint Depression Visibility Wind Speed Wind Dir Waves Ship Positions

Tasman Sea

Owner: Kirby Offshore Marine, LLC, Staten Island, NY. More information available from US FCC via Universal Licensing System and Coast Guard Vessel Documentation Center.

Last reported at 2014-Nov-24 21:31 UTC. Time now 2014-Nov-27 16:08 UTC.
Position N 40°55' W 073°55'.

Length 38 m; draft 5 m.

Type: Tug. MMSI: 366910960.

Date/timePositionNaut miles runAvg speedWind from/ knotsBaromVisibWave heightAir tempDewpointWater temp
2014-Nov-24 21:31N 40°55' W 073°55'6 6.1
2014-Nov-24 20:33N 40°50' W 073°58'6 6.2
2014-Nov-24 19:33N 40°44' W 074°01'6 5.5
2014-Nov-24 18:33N 40°39' W 074°03'0 0.0
2014-Nov-24 17:33N 40°39' W 074°03'0 0.1
2014-Nov-24 16:33N 40°39' W 074°03'0 0.2
2014-Nov-24 15:33N 40°39' W 074°03'0 0.0
2014-Nov-24 14:33N 40°39' W 074°03'0 0.0
2014-Nov-24 13:33N 40°39' W 074°03'0 0.0
2014-Nov-24 12:33N 40°39' W 074°03'0 0.0
2014-Nov-24 11:33N 40°39' W 074°03'0 0.0
2014-Nov-24 10:33N 40°39' W 074°03'0 0.0
2014-Nov-24 09:33N 40°39' W 074°03'0 0.1
2014-Nov-24 08:33N 40°39' W 074°03'0 0.1
2014-Nov-24 07:33N 40°39' W 074°03'0 0.0
2014-Nov-24 06:33N 40°39' W 074°03'2 1.6
2014-Nov-24 05:33N 40°40' W 074°03'10 9.9
2014-Nov-24 04:33N 40°48' W 073°54'8 7.9
2014-Nov-24 03:33N 40°52' W 073°45'9 9.3
2014-Nov-24 02:33N 40°57' W 073°35'10 9.9
2014-Nov-24 01:33N 41°01' W 073°23'10 9.7
2014-Nov-24 00:33N 41°02' W 073°10'9 9.4
2014-Nov-23 23:33N 41°04' W 072°58'9 8.9
2014-Nov-23 22:33N 41°06' W 072°46'8 8.4
2014-Nov-23 21:33N 41°08' W 072°35'7 7.4
2014-Nov-23 20:33N 41°10' W 072°26'6 6.4
2014-Nov-23 19:33N 41°11' W 072°17'7 6.5
2014-Nov-23 18:33N 41°13' W 072°09'7 6.9
2014-Nov-23 17:33N 41°14' W 072°00'8 8.4
2014-Nov-23 16:33N 41°16' W 071°49'8 8.4
2014-Nov-23 15:33N 41°17' W 071°38'8 7.9
2014-Nov-23 14:33N 41°19' W 071°28'8 8.1
2014-Nov-23 13:33N 41°26' W 071°23'8 8.0
2014-Nov-23 12:33N 41°33' W 071°19'8 8.1
2014-Nov-23 11:33N 41°41' W 071°19'6 6.1
2014-Nov-23 10:33N 41°47' W 071°22'0 0.0
2014-Nov-23 09:31N 41°47' W 071°22'0 0.0
2014-Nov-23 07:33N 41°47' W 071°22'0 0.0
2014-Nov-23 06:32N 41°47' W 071°22'0 0.0
2014-Nov-23 05:33N 41°47' W 071°22'0 0.0
2014-Nov-23 04:33N 41°47' W 071°22'0 0.0
2014-Nov-23 03:32N 41°47' W 071°22'0 0.0
2014-Nov-23 02:33N 41°47' W 071°22'0 0.0
2014-Nov-23 01:33N 41°47' W 071°22'0 0.0
2014-Nov-23 00:31N 41°47' W 071°22'0 0.0
2014-Nov-22 23:33N 41°47' W 071°22'6 6.3
2014-Nov-22 22:33N 41°41' W 071°19'9 8.1
2014-Nov-22 21:26N 41°32' W 071°20'7 7.7
2014-Nov-22 20:33N 41°26' W 071°22'6 6.3
2014-Nov-22 19:32N 41°25' W 071°14'8 6.3
2014-Nov-22 18:14N 41°25' W 071°03'5 6.7
2014-Nov-22 17:31N 41°28' W 070°58'8 7.4
2014-Nov-22 16:25N 41°32' W 070°48'12 0.2
2014-Nov-20 14:27N 41°25' W 071°02'3 3.8
2014-Nov-20 13:33N 41°23' W 071°06'5 4.8
2014-Nov-20 12:33N 41°21' W 071°12'5 5.0
2014-Nov-20 11:33N 41°19' W 071°18'5 4.9
2014-Nov-20 10:33N 41°18' W 071°24'6 6.0
2014-Nov-20 09:33N 41°18' W 071°32'7 7.5
2014-Nov-20 08:33N 41°17' W 071°42'8 7.9
2014-Nov-20 07:33N 41°15' W 071°52'9 9.0
2014-Nov-20 06:33N 41°14' W 072°04'10 9.6
2014-Nov-20 05:33N 41°12' W 072°16'10 9.7
2014-Nov-20 04:33N 41°09' W 072°29'9 8.8
2014-Nov-20 03:33N 41°07' W 072°40'8 8.0
2014-Nov-20 02:33N 41°05' W 072°50'8 7.6
2014-Nov-20 01:33N 41°04' W 073°00'8 7.2
2014-Nov-20 00:28N 41°02' W 073°10'7 7.0
2014-Nov-19 23:26N 41°01' W 073°20'28 7.0
2014-Nov-19 19:29N 40°48' W 073°52'5 5.4
2014-Nov-19 18:33N 40°45' W 073°58'4 3.8
2014-Nov-19 17:33N 40°43' W 074°02'  
2014-Nov-17 11:32N 40°50' W 073°57'9 9.7
2014-Nov-17 10:33N 40°42' W 074°02'5 4.5
2014-Nov-17 09:33N 40°39' W 074°07'0 0.0
2014-Nov-17 08:33N 40°39' W 074°07'0 0.0
2014-Nov-17 07:33N 40°39' W 074°07'0 0.0
2014-Nov-17 06:33N 40°39' W 074°07'0 0.0
2014-Nov-17 05:29N 40°39' W 074°07'0 0.0
2014-Nov-17 04:33N 40°39' W 074°07'0 0.0
2014-Nov-17 03:33N 40°39' W 074°07'0 0.2
2014-Nov-17 02:33N 40°39' W 074°07'2 2.3
2014-Nov-17 01:32N 40°39' W 074°10'0 0.0
2014-Nov-17 00:33N 40°39' W 074°10'3 2.5
2014-Nov-16 23:33N 40°39' W 074°07'1 0.8
2014-Nov-16 22:33N 40°39' W 074°08'0 0.2
2014-Nov-16 21:33N 40°39' W 074°08'1 1.2
2014-Nov-16 20:33N 40°39' W 074°06'2 1.7
2014-Nov-16 19:33N 40°40' W 074°04'0 0.0
2014-Nov-16 18:33N 40°40' W 074°04'0 0.0
2014-Nov-16 17:33N 40°40' W 074°04'0 0.0
2014-Nov-16 16:33N 40°40' W 074°04'0 0.0
2014-Nov-16 15:33N 40°40' W 074°04'0 0.0
2014-Nov-16 14:33N 40°40' W 074°04'0 0.0
2014-Nov-16 13:33N 40°40' W 074°04'0 0.0
2014-Nov-16 12:33N 40°40' W 074°04'0 0.0
2014-Nov-16 11:33N 40°40' W 074°04'0 0.0
2014-Nov-16 10:33N 40°40' W 074°04'0 0.0
2014-Nov-16 09:33N 40°40' W 074°04'0 0.0
2014-Nov-16 08:33N 40°40' W 074°04'0 0.0
2014-Nov-16 07:33N 40°40' W 074°04'0 0.0
2014-Nov-16 06:33N 40°40' W 074°04'0 0.0
2014-Nov-16 05:33N 40°40' W 074°04'0 0.0
2014-Nov-16 04:33N 40°40' W 074°04'0 0.0
2014-Nov-16 03:33N 40°40' W 074°04'0 0.0
2014-Nov-16 02:33N 40°40' W 074°04'0 0.0
2014-Nov-16 01:33N 40°40' W 074°04'0 0.0
2014-Nov-16 00:33N 40°40' W 074°04'0 0.0
2014-Nov-15 23:31N 40°40' W 074°04'0 0.0
2014-Nov-15 22:28N 40°40' W 074°04'0 0.0
2014-Nov-15 21:33N 40°40' W 074°04'0 0.0
2014-Nov-15 20:33N 40°40' W 074°04'0 0.0
2014-Nov-15 19:33N 40°40' W 074°04'0 0.0
2014-Nov-15 18:33N 40°40' W 074°04'0 0.0
2014-Nov-15 17:32N 40°40' W 074°04'0 0.0
2014-Nov-15 16:31N 40°40' W 074°04'0 0.0
2014-Nov-15 15:33N 40°40' W 074°04'0 0.0
2014-Nov-15 14:33N 40°40' W 074°04'0 0.0
2014-Nov-15 13:33N 40°40' W 074°04'0 0.0
2014-Nov-15 12:33N 40°40' W 074°04'0 0.0
2014-Nov-15 11:33N 40°40' W 074°04'0 0.0
2014-Nov-15 10:33N 40°40' W 074°04'0 0.0
2014-Nov-15 09:33N 40°40' W 074°04'0 0.0
2014-Nov-15 08:33N 40°40' W 074°04'0 0.0
2014-Nov-15 07:33N 40°40' W 074°04'0 0.0
2014-Nov-15 06:33N 40°40' W 074°04'0 0.0
2014-Nov-15 05:33N 40°40' W 074°04'0 0.0
2014-Nov-15 04:33N 40°40' W 074°04'0 0.0
2014-Nov-15 03:33N 40°40' W 074°04'0 0.0
2014-Nov-15 02:33N 40°40' W 074°04'0 0.0
2014-Nov-15 01:33N 40°40' W 074°04'0 0.0
2014-Nov-15 00:33N 40°40' W 074°04'0 0.0
2014-Nov-14 23:33N 40°40' W 074°04'0 0.0
2014-Nov-14 22:32N 40°40' W 074°04'0 0.0
2014-Nov-14 21:33N 40°40' W 074°04'  

Dump ship's entire track history